sensor_id;sensor_type;location;lat;lon;timestamp;P1;durP1;ratioP1;P2;durP2;ratioP2
21611;SDS011;47005;52.292;13.452;2023-05-07T00:00:16;12.60;;;8.03;;
21611;SDS011;47005;52.292;13.452;2023-05-07T00:02:43;11.63;;;8.60;;
21611;SDS011;47005;52.292;13.452;2023-05-07T00:05:10;10.70;;;8.27;;
21611;SDS011;47005;52.292;13.452;2023-05-07T00:07:36;11.83;;;7.70;;
21611;SDS011;47005;52.292;13.452;2023-05-07T00:10:02;12.10;;;7.30;;
21611;SDS011;47005;52.292;13.452;2023-05-07T00:12:28;11.60;;;7.93;;
21611;SDS011;47005;52.292;13.452;2023-05-07T00:14:56;19.63;;;8.00;;
21611;SDS011;47005;52.292;13.452;2023-05-07T00:17:22;13.30;;;8.07;;
21611;SDS011;47005;52.292;13.452;2023-05-07T00:19:48;11.77;;;7.70;;
21611;SDS011;47005;52.292;13.452;2023-05-07T00:22:14;11.93;;;8.30;;
21611;SDS011;47005;52.292;13.452;2023-05-07T00:24:39;13.03;;;8.83;;
21611;SDS011;47005;52.292;13.452;2023-05-07T00:27:05;12.43;;;7.93;;
21611;SDS011;47005;52.292;13.452;2023-05-07T00:29:30;10.80;;;9.07;;
21611;SDS011;47005;52.292;13.452;2023-05-07T00:31:56;9.87;;;6.97;;
21611;SDS011;47005;52.292;13.452;2023-05-07T00:34:22;11.47;;;7.83;;
21611;SDS011;47005;52.292;13.452;2023-05-07T00:36:48;10.80;;;7.70;;
21611;SDS011;47005;52.292;13.452;2023-05-07T00:39:13;14.20;;;8.00;;
21611;SDS011;47005;52.292;13.452;2023-05-07T00:41:39;13.47;;;8.07;;
21611;SDS011;47005;52.292;13.452;2023-05-07T00:44:05;11.67;;;8.00;;
21611;SDS011;47005;52.292;13.452;2023-05-07T00:46:30;12.53;;;8.53;;
21611;SDS011;47005;52.292;13.452;2023-05-07T00:48:57;11.07;;;7.77;;
21611;SDS011;47005;52.292;13.452;2023-05-07T00:51:24;12.83;;;7.60;;
21611;SDS011;47005;52.292;13.452;2023-05-07T00:53:52;16.20;;;8.07;;
21611;SDS011;47005;52.292;13.452;2023-05-07T00:56:18;9.00;;;7.50;;
21611;SDS011;47005;52.292;13.452;2023-05-07T00:58:48;13.87;;;8.27;;
21611;SDS011;47005;52.292;13.452;2023-05-07T01:01:14;14.60;;;7.77;;
21611;SDS011;47005;52.292;13.452;2023-05-07T01:03:41;10.83;;;8.37;;
21611;SDS011;47005;52.292;13.452;2023-05-07T01:06:07;9.83;;;7.43;;
21611;SDS011;47005;52.292;13.452;2023-05-07T01:08:35;11.23;;;7.67;;
21611;SDS011;47005;52.292;13.452;2023-05-07T01:11:01;11.83;;;8.50;;
21611;SDS011;47005;52.292;13.452;2023-05-07T01:13:28;11.03;;;8.10;;
21611;SDS011;47005;52.292;13.452;2023-05-07T01:15:54;11.00;;;7.37;;
21611;SDS011;47005;52.292;13.452;2023-05-07T01:18:20;8.73;;;6.83;;
21611;SDS011;47005;52.292;13.452;2023-05-07T01:20:46;9.03;;;6.80;;
21611;SDS011;47005;52.292;13.452;2023-05-07T01:23:12;14.40;;;6.67;;
21611;SDS011;47005;52.292;13.452;2023-05-07T01:25:38;11.33;;;7.27;;
21611;SDS011;47005;52.292;13.452;2023-05-07T01:28:03;9.20;;;6.27;;
21611;SDS011;47005;52.292;13.452;2023-05-07T01:30:30;8.83;;;6.63;;
21611;SDS011;47005;52.292;13.452;2023-05-07T01:33:06;8.63;;;6.20;;
21611;SDS011;47005;52.292;13.452;2023-05-07T01:35:38;10.30;;;6.30;;
21611;SDS011;47005;52.292;13.452;2023-05-07T01:38:09;10.33;;;6.93;;
21611;SDS011;47005;52.292;13.452;2023-05-07T01:40:35;10.90;;;7.07;;
21611;SDS011;47005;52.292;13.452;2023-05-07T01:43:04;10.60;;;6.77;;
21611;SDS011;47005;52.292;13.452;2023-05-07T01:45:30;9.07;;;6.63;;
21611;SDS011;47005;52.292;13.452;2023-05-07T01:47:57;13.30;;;6.30;;
21611;SDS011;47005;52.292;13.452;2023-05-07T01:50:23;12.83;;;7.57;;
21611;SDS011;47005;52.292;13.452;2023-05-07T01:52:51;12.07;;;7.50;;
21611;SDS011;47005;52.292;13.452;2023-05-07T01:55:17;12.43;;;8.03;;
21611;SDS011;47005;52.292;13.452;2023-05-07T01:57:43;9.67;;;7.13;;
21611;SDS011;47005;52.292;13.452;2023-05-07T02:00:09;9.50;;;7.20;;
21611;SDS011;47005;52.292;13.452;2023-05-07T02:02:35;11.80;;;7.13;;
21611;SDS011;47005;52.292;13.452;2023-05-07T02:05:01;11.47;;;7.73;;
21611;SDS011;47005;52.292;13.452;2023-05-07T02:07:29;14.73;;;7.23;;
21611;SDS011;47005;52.292;13.452;2023-05-07T02:09:55;14.67;;;7.43;;
21611;SDS011;47005;52.292;13.452;2023-05-07T02:12:21;9.53;;;7.03;;
21611;SDS011;47005;52.292;13.452;2023-05-07T02:14:47;10.77;;;6.87;;
21611;SDS011;47005;52.292;13.452;2023-05-07T02:17:13;10.23;;;6.97;;
21611;SDS011;47005;52.292;13.452;2023-05-07T02:19:39;9.67;;;6.77;;
21611;SDS011;47005;52.292;13.452;2023-05-07T02:22:04;10.80;;;6.90;;
21611;SDS011;47005;52.292;13.452;2023-05-07T02:24:30;9.13;;;7.50;;
21611;SDS011;47005;52.292;13.452;2023-05-07T02:26:56;12.20;;;7.40;;
21611;SDS011;47005;52.292;13.452;2023-05-07T02:29:21;11.60;;;7.57;;
21611;SDS011;47005;52.292;13.452;2023-05-07T02:31:47;10.37;;;6.23;;
21611;SDS011;47005;52.292;13.452;2023-05-07T02:34:16;7.47;;;6.10;;
21611;SDS011;47005;52.292;13.452;2023-05-07T02:36:42;9.37;;;6.33;;
21611;SDS011;47005;52.292;13.452;2023-05-07T02:39:07;8.23;;;6.30;;
21611;SDS011;47005;52.292;13.452;2023-05-07T02:41:33;12.83;;;7.17;;
21611;SDS011;47005;52.292;13.452;2023-05-07T02:43:59;9.63;;;6.70;;
21611;SDS011;47005;52.292;13.452;2023-05-07T02:46:27;8.90;;;6.23;;
21611;SDS011;47005;52.292;13.452;2023-05-07T02:48:53;9.93;;;6.67;;
21611;SDS011;47005;52.292;13.452;2023-05-07T02:51:19;8.47;;;6.40;;
21611;SDS011;47005;52.292;13.452;2023-05-07T02:53:46;9.57;;;7.10;;
21611;SDS011;47005;52.292;13.452;2023-05-07T02:56:11;11.67;;;7.33;;
21611;SDS011;47005;52.292;13.452;2023-05-07T02:58:37;12.37;;;8.13;;
21611;SDS011;47005;52.292;13.452;2023-05-07T03:01:07;12.30;;;7.53;;
21611;SDS011;47005;52.292;13.452;2023-05-07T03:03:33;10.57;;;7.13;;
21611;SDS011;47005;52.292;13.452;2023-05-07T03:05:59;12.73;;;7.90;;
21611;SDS011;47005;52.292;13.452;2023-05-07T03:08:25;7.77;;;6.33;;
21611;SDS011;47005;52.292;13.452;2023-05-07T03:10:51;10.67;;;8.20;;
21611;SDS011;47005;52.292;13.452;2023-05-07T03:13:16;10.87;;;7.80;;
21611;SDS011;47005;52.292;13.452;2023-05-07T03:15:42;12.87;;;8.00;;
21611;SDS011;47005;52.292;13.452;2023-05-07T03:18:08;10.60;;;7.53;;
21611;SDS011;47005;52.292;13.452;2023-05-07T03:20:34;8.33;;;6.83;;
21611;SDS011;47005;52.292;13.452;2023-05-07T03:23:01;13.80;;;8.07;;
21611;SDS011;47005;52.292;13.452;2023-05-07T03:25:27;10.00;;;6.93;;
21611;SDS011;47005;52.292;13.452;2023-05-07T03:27:53;9.43;;;6.27;;
21611;SDS011;47005;52.292;13.452;2023-05-07T03:30:18;9.80;;;8.07;;
21611;SDS011;47005;52.292;13.452;2023-05-07T03:32:45;10.53;;;7.97;;
21611;SDS011;47005;52.292;13.452;2023-05-07T03:35:13;10.00;;;6.77;;
21611;SDS011;47005;52.292;13.452;2023-05-07T03:37:39;9.27;;;7.30;;
21611;SDS011;47005;52.292;13.452;2023-05-07T03:40:05;9.20;;;6.93;;
21611;SDS011;47005;52.292;13.452;2023-05-07T03:42:32;11.00;;;7.20;;
21611;SDS011;47005;52.292;13.452;2023-05-07T03:44:57;9.33;;;7.67;;
21611;SDS011;47005;52.292;13.452;2023-05-07T03:47:23;11.70;;;7.20;;
21611;SDS011;47005;52.292;13.452;2023-05-07T03:49:49;12.00;;;6.77;;
21611;SDS011;47005;52.292;13.452;2023-05-07T03:52:15;11.10;;;6.47;;
21611;SDS011;47005;52.292;13.452;2023-05-07T03:54:41;12.83;;;7.10;;
21611;SDS011;47005;52.292;13.452;2023-05-07T03:57:07;12.37;;;7.17;;
21611;SDS011;47005;52.292;13.452;2023-05-07T03:59:32;12.97;;;7.80;;
21611;SDS011;47005;52.292;13.452;2023-05-07T04:01:58;8.73;;;6.77;;
21611;SDS011;47005;52.292;13.452;2023-05-07T04:04:23;10.13;;;7.57;;
21611;SDS011;47005;52.292;13.452;2023-05-07T04:06:49;10.87;;;7.93;;
21611;SDS011;47005;52.292;13.452;2023-05-07T04:09:15;9.83;;;7.20;;
21611;SDS011;47005;52.292;13.452;2023-05-07T04:11:40;13.60;;;8.77;;
21611;SDS011;47005;52.292;13.452;2023-05-07T04:14:06;12.10;;;7.53;;
21611;SDS011;47005;52.292;13.452;2023-05-07T04:16:32;12.70;;;9.30;;
21611;SDS011;47005;52.292;13.452;2023-05-07T04:18:59;11.47;;;8.30;;
21611;SDS011;47005;52.292;13.452;2023-05-07T04:21:24;9.60;;;8.47;;
21611;SDS011;47005;52.292;13.452;2023-05-07T04:23:51;12.80;;;8.73;;
21611;SDS011;47005;52.292;13.452;2023-05-07T04:26:17;11.17;;;8.57;;
21611;SDS011;47005;52.292;13.452;2023-05-07T04:28:42;10.70;;;8.43;;
21611;SDS011;47005;52.292;13.452;2023-05-07T04:31:08;13.63;;;7.47;;
21611;SDS011;47005;52.292;13.452;2023-05-07T04:33:34;11.70;;;8.10;;
21611;SDS011;47005;52.292;13.452;2023-05-07T04:36:03;12.67;;;8.57;;
21611;SDS011;47005;52.292;13.452;2023-05-07T04:38:30;10.27;;;7.60;;
21611;SDS011;47005;52.292;13.452;2023-05-07T04:40:56;10.77;;;7.30;;
21611;SDS011;47005;52.292;13.452;2023-05-07T04:43:23;12.07;;;7.50;;
21611;SDS011;47005;52.292;13.452;2023-05-07T04:45:51;11.07;;;7.37;;
21611;SDS011;47005;52.292;13.452;2023-05-07T04:48:17;9.13;;;6.87;;
21611;SDS011;47005;52.292;13.452;2023-05-07T04:50:46;10.80;;;7.03;;
21611;SDS011;47005;52.292;13.452;2023-05-07T04:53:13;9.47;;;6.80;;
21611;SDS011;47005;52.292;13.452;2023-05-07T04:55:38;10.73;;;7.07;;
21611;SDS011;47005;52.292;13.452;2023-05-07T04:58:04;10.10;;;7.07;;
21611;SDS011;47005;52.292;13.452;2023-05-07T05:00:30;11.33;;;7.37;;
21611;SDS011;47005;52.292;13.452;2023-05-07T05:02:56;10.53;;;7.63;;
21611;SDS011;47005;52.292;13.452;2023-05-07T05:05:21;14.93;;;6.80;;
21611;SDS011;47005;52.292;13.452;2023-05-07T05:07:47;10.60;;;6.97;;
21611;SDS011;47005;52.292;13.452;2023-05-07T05:10:13;10.47;;;7.23;;
21611;SDS011;47005;52.292;13.452;2023-05-07T05:12:38;8.50;;;6.80;;
21611;SDS011;47005;52.292;13.452;2023-05-07T05:15:04;10.47;;;7.40;;
21611;SDS011;47005;52.292;13.452;2023-05-07T05:17:30;10.10;;;7.53;;
21611;SDS011;47005;52.292;13.452;2023-05-07T05:19:56;11.90;;;8.10;;
21611;SDS011;47005;52.292;13.452;2023-05-07T05:22:22;13.77;;;7.97;;
21611;SDS011;47005;52.292;13.452;2023-05-07T05:24:48;10.40;;;6.87;;
21611;SDS011;47005;52.292;13.452;2023-05-07T05:27:13;8.57;;;6.37;;
21611;SDS011;47005;52.292;13.452;2023-05-07T05:29:39;10.03;;;6.63;;
21611;SDS011;47005;52.292;13.452;2023-05-07T05:32:04;9.33;;;7.10;;
21611;SDS011;47005;52.292;13.452;2023-05-07T05:34:30;8.63;;;6.53;;
21611;SDS011;47005;52.292;13.452;2023-05-07T05:36:56;9.17;;;6.67;;
21611;SDS011;47005;52.292;13.452;2023-05-07T05:39:21;11.07;;;6.87;;
21611;SDS011;47005;52.292;13.452;2023-05-07T05:41:48;6.20;;;5.40;;
21611;SDS011;47005;52.292;13.452;2023-05-07T05:44:13;11.13;;;6.73;;
21611;SDS011;47005;52.292;13.452;2023-05-07T05:46:39;9.23;;;6.00;;
21611;SDS011;47005;52.292;13.452;2023-05-07T05:49:05;9.67;;;6.30;;
21611;SDS011;47005;52.292;13.452;2023-05-07T05:51:31;13.30;;;7.50;;
21611;SDS011;47005;52.292;13.452;2023-05-07T05:53:56;9.57;;;6.10;;
21611;SDS011;47005;52.292;13.452;2023-05-07T05:56:22;8.13;;;5.70;;
21611;SDS011;47005;52.292;13.452;2023-05-07T05:58:47;8.17;;;6.03;;
21611;SDS011;47005;52.292;13.452;2023-05-07T06:01:13;7.80;;;6.00;;
21611;SDS011;47005;52.292;13.452;2023-05-07T06:03:39;10.43;;;6.10;;
21611;SDS011;47005;52.292;13.452;2023-05-07T06:06:05;8.67;;;5.73;;
21611;SDS011;47005;52.292;13.452;2023-05-07T06:08:30;9.70;;;5.93;;
21611;SDS011;47005;52.292;13.452;2023-05-07T06:10:56;7.87;;;5.57;;
21611;SDS011;47005;52.292;13.452;2023-05-07T06:13:23;8.33;;;6.07;;
21611;SDS011;47005;52.292;13.452;2023-05-07T06:15:49;8.83;;;6.20;;
21611;SDS011;47005;52.292;13.452;2023-05-07T06:18:14;8.10;;;5.80;;
21611;SDS011;47005;52.292;13.452;2023-05-07T06:20:40;7.43;;;5.50;;
21611;SDS011;47005;52.292;13.452;2023-05-07T06:23:06;9.40;;;5.80;;
21611;SDS011;47005;52.292;13.452;2023-05-07T06:25:31;6.70;;;5.37;;
21611;SDS011;47005;52.292;13.452;2023-05-07T06:27:57;8.23;;;6.37;;
21611;SDS011;47005;52.292;13.452;2023-05-07T06:30:23;7.30;;;5.03;;
21611;SDS011;47005;52.292;13.452;2023-05-07T06:32:48;6.53;;;5.27;;
21611;SDS011;47005;52.292;13.452;2023-05-07T06:35:14;6.77;;;4.80;;
21611;SDS011;47005;52.292;13.452;2023-05-07T06:37:40;7.77;;;4.97;;
21611;SDS011;47005;52.292;13.452;2023-05-07T06:40:07;6.60;;;5.00;;
21611;SDS011;47005;52.292;13.452;2023-05-07T06:42:35;8.07;;;4.63;;
21611;SDS011;47005;52.292;13.452;2023-05-07T06:45:01;7.90;;;4.70;;
21611;SDS011;47005;52.292;13.452;2023-05-07T06:47:27;6.83;;;4.60;;
21611;SDS011;47005;52.292;13.452;2023-05-07T06:49:53;6.53;;;4.47;;
21611;SDS011;47005;52.292;13.452;2023-05-07T06:52:19;8.47;;;4.53;;
21611;SDS011;47005;52.292;13.452;2023-05-07T06:54:45;9.93;;;4.60;;
21611;SDS011;47005;52.292;13.452;2023-05-07T06:57:10;7.03;;;4.57;;
21611;SDS011;47005;52.292;13.452;2023-05-07T06:59:36;7.00;;;3.87;;
21611;SDS011;47005;52.292;13.452;2023-05-07T07:02:02;5.37;;;3.57;;
21611;SDS011;47005;52.292;13.452;2023-05-07T07:04:27;6.23;;;4.30;;
21611;SDS011;47005;52.292;13.452;2023-05-07T07:06:53;8.03;;;4.97;;
21611;SDS011;47005;52.292;13.452;2023-05-07T07:09:19;8.13;;;4.70;;
21611;SDS011;47005;52.292;13.452;2023-05-07T07:11:48;6.87;;;4.83;;
21611;SDS011;47005;52.292;13.452;2023-05-07T07:14:13;6.40;;;4.17;;
21611;SDS011;47005;52.292;13.452;2023-05-07T07:16:39;5.77;;;4.20;;
21611;SDS011;47005;52.292;13.452;2023-05-07T07:19:05;5.80;;;4.03;;
21611;SDS011;47005;52.292;13.452;2023-05-07T07:21:31;6.63;;;3.90;;
21611;SDS011;47005;52.292;13.452;2023-05-07T07:23:57;5.87;;;3.97;;
21611;SDS011;47005;52.292;13.452;2023-05-07T07:26:23;5.30;;;4.13;;
21611;SDS011;47005;52.292;13.452;2023-05-07T07:28:48;6.07;;;4.30;;
21611;SDS011;47005;52.292;13.452;2023-05-07T07:31:14;9.60;;;4.50;;
21611;SDS011;47005;52.292;13.452;2023-05-07T07:33:46;5.33;;;3.27;;
21611;SDS011;47005;52.292;13.452;2023-05-07T07:36:11;8.30;;;4.40;;
21611;SDS011;47005;52.292;13.452;2023-05-07T07:38:37;6.80;;;3.57;;
21611;SDS011;47005;52.292;13.452;2023-05-07T07:41:03;7.57;;;3.93;;
21611;SDS011;47005;52.292;13.452;2023-05-07T07:43:29;5.87;;;3.70;;
21611;SDS011;47005;52.292;13.452;2023-05-07T07:45:55;7.67;;;4.43;;
21611;SDS011;47005;52.292;13.452;2023-05-07T07:48:20;6.00;;;4.00;;
21611;SDS011;47005;52.292;13.452;2023-05-07T07:50:48;6.27;;;3.33;;
21611;SDS011;47005;52.292;13.452;2023-05-07T07:53:15;5.53;;;3.63;;
21611;SDS011;47005;52.292;13.452;2023-05-07T07:55:42;6.97;;;4.10;;
21611;SDS011;47005;52.292;13.452;2023-05-07T07:58:07;6.83;;;4.20;;
21611;SDS011;47005;52.292;13.452;2023-05-07T08:00:33;5.50;;;2.73;;
21611;SDS011;47005;52.292;13.452;2023-05-07T08:02:59;5.40;;;2.93;;
21611;SDS011;47005;52.292;13.452;2023-05-07T08:05:25;4.40;;;3.07;;
21611;SDS011;47005;52.292;13.452;2023-05-07T08:07:51;3.80;;;2.13;;
21611;SDS011;47005;52.292;13.452;2023-05-07T08:10:18;6.10;;;3.20;;
21611;SDS011;47005;52.292;13.452;2023-05-07T08:12:48;4.83;;;3.00;;
21611;SDS011;47005;52.292;13.452;2023-05-07T08:15:14;3.50;;;2.40;;
21611;SDS011;47005;52.292;13.452;2023-05-07T08:17:40;5.30;;;2.87;;
21611;SDS011;47005;52.292;13.452;2023-05-07T08:20:06;5.77;;;2.97;;
21611;SDS011;47005;52.292;13.452;2023-05-07T08:22:33;5.50;;;2.77;;
21611;SDS011;47005;52.292;13.452;2023-05-07T08:25:02;4.77;;;3.00;;
21611;SDS011;47005;52.292;13.452;2023-05-07T08:27:31;4.93;;;3.30;;
21611;SDS011;47005;52.292;13.452;2023-05-07T08:29:57;6.10;;;3.27;;
21611;SDS011;47005;52.292;13.452;2023-05-07T08:32:22;7.97;;;2.72;;
21611;SDS011;47005;52.292;13.452;2023-05-07T08:34:48;6.27;;;2.77;;
21611;SDS011;47005;52.292;13.452;2023-05-07T08:37:13;3.87;;;2.57;;
21611;SDS011;47005;52.292;13.452;2023-05-07T08:39:39;4.97;;;2.83;;
21611;SDS011;47005;52.292;13.452;2023-05-07T08:42:05;5.13;;;2.97;;
21611;SDS011;47005;52.292;13.452;2023-05-07T08:44:33;3.90;;;2.42;;
21611;SDS011;47005;52.292;13.452;2023-05-07T08:47:00;6.53;;;3.20;;
21611;SDS011;47005;52.292;13.452;2023-05-07T08:49:29;4.73;;;2.80;;
21611;SDS011;47005;52.292;13.452;2023-05-07T08:51:55;8.88;;;3.10;;
21611;SDS011;47005;52.292;13.452;2023-05-07T08:54:21;5.22;;;2.50;;
21611;SDS011;47005;52.292;13.452;2023-05-07T08:56:47;3.63;;;2.25;;
21611;SDS011;47005;52.292;13.452;2023-05-07T08:59:13;3.83;;;2.72;;
21611;SDS011;47005;52.292;13.452;2023-05-07T09:01:39;4.05;;;2.55;;
21611;SDS011;47005;52.292;13.452;2023-05-07T09:04:05;5.85;;;2.70;;
21611;SDS011;47005;52.292;13.452;2023-05-07T09:06:32;3.05;;;2.20;;
21611;SDS011;47005;52.292;13.452;2023-05-07T09:08:58;3.88;;;2.55;;
21611;SDS011;47005;52.292;13.452;2023-05-07T09:11:26;11.73;;;2.85;;
21611;SDS011;47005;52.292;13.452;2023-05-07T09:13:55;5.65;;;2.20;;
21611;SDS011;47005;52.292;13.452;2023-05-07T09:16:24;3.83;;;2.40;;
21611;SDS011;47005;52.292;13.452;2023-05-07T09:18:51;4.15;;;2.40;;
21611;SDS011;47005;52.292;13.452;2023-05-07T09:21:18;4.70;;;2.20;;
21611;SDS011;47005;52.292;13.452;2023-05-07T09:23:45;3.67;;;2.40;;
21611;SDS011;47005;52.292;13.452;2023-05-07T09:26:12;4.10;;;2.20;;
21611;SDS011;47005;52.292;13.452;2023-05-07T09:28:39;3.28;;;2.30;;
21611;SDS011;47005;52.292;13.452;2023-05-07T09:31:06;8.50;;;3.25;;
21611;SDS011;47005;52.292;13.452;2023-05-07T09:33:33;4.78;;;2.60;;
21611;SDS011;47005;52.292;13.452;2023-05-07T09:36:01;3.63;;;2.00;;
21611;SDS011;47005;52.292;13.452;2023-05-07T09:38:28;3.88;;;2.60;;
21611;SDS011;47005;52.292;13.452;2023-05-07T09:41:03;5.20;;;2.60;;
21611;SDS011;47005;52.292;13.452;2023-05-07T09:43:34;4.15;;;2.38;;
21611;SDS011;47005;52.292;13.452;2023-05-07T09:46:02;3.67;;;2.30;;
21611;SDS011;47005;52.292;13.452;2023-05-07T09:48:30;3.83;;;2.47;;
21611;SDS011;47005;52.292;13.452;2023-05-07T09:51:02;3.08;;;2.13;;
21611;SDS011;47005;52.292;13.452;2023-05-07T09:53:30;4.00;;;2.40;;
21611;SDS011;47005;52.292;13.452;2023-05-07T09:55:56;3.63;;;2.08;;
21611;SDS011;47005;52.292;13.452;2023-05-07T09:58:23;3.22;;;2.20;;
21611;SDS011;47005;52.292;13.452;2023-05-07T10:00:50;3.30;;;2.30;;
21611;SDS011;47005;52.292;13.452;2023-05-07T10:03:17;3.30;;;1.98;;
21611;SDS011;47005;52.292;13.452;2023-05-07T10:05:45;3.35;;;2.45;;
21611;SDS011;47005;52.292;13.452;2023-05-07T10:08:12;3.50;;;2.10;;
21611;SDS011;47005;52.292;13.452;2023-05-07T10:10:39;4.00;;;2.13;;
21611;SDS011;47005;52.292;13.452;2023-05-07T10:13:06;2.92;;;1.83;;
21611;SDS011;47005;52.292;13.452;2023-05-07T10:15:35;3.58;;;2.15;;
21611;SDS011;47005;52.292;13.452;2023-05-07T10:18:04;4.57;;;2.30;;
21611;SDS011;47005;52.292;13.452;2023-05-07T10:20:31;2.83;;;2.00;;
21611;SDS011;47005;52.292;13.452;2023-05-07T10:22:59;3.92;;;2.28;;
21611;SDS011;47005;52.292;13.452;2023-05-07T10:25:30;4.43;;;2.10;;
21611;SDS011;47005;52.292;13.452;2023-05-07T10:27:57;2.75;;;1.85;;
21611;SDS011;47005;52.292;13.452;2023-05-07T10:33:13;3.40;;;2.20;;
21611;SDS011;47005;52.292;13.452;2023-05-07T10:35:42;5.43;;;2.50;;
21611;SDS011;47005;52.292;13.452;2023-05-07T10:38:10;3.58;;;2.78;;
21611;SDS011;47005;52.292;13.452;2023-05-07T10:40:36;3.40;;;2.75;;
21611;SDS011;47005;52.292;13.452;2023-05-07T10:43:02;3.33;;;2.40;;
21611;SDS011;47005;52.292;13.452;2023-05-07T10:45:32;5.57;;;2.40;;
21611;SDS011;47005;52.292;13.452;2023-05-07T10:50:40;3.30;;;2.35;;
21611;SDS011;47005;52.292;13.452;2023-05-07T11:00:47;8.50;;;2.58;;
21611;SDS011;47005;52.292;13.452;2023-05-07T11:03:14;4.18;;;2.42;;
21611;SDS011;47005;52.292;13.452;2023-05-07T11:05:40;4.00;;;2.78;;
21611;SDS011;47005;52.292;13.452;2023-05-07T11:08:07;4.15;;;2.72;;
21611;SDS011;47005;52.292;13.452;2023-05-07T11:10:52;3.72;;;2.35;;
21611;SDS011;47005;52.292;13.452;2023-05-07T11:18:52;3.22;;;2.05;;
21611;SDS011;47005;52.292;13.452;2023-05-07T11:21:35;4.40;;;2.35;;
21611;SDS011;47005;52.292;13.452;2023-05-07T11:24:01;3.13;;;2.13;;
21611;SDS011;47005;52.292;13.452;2023-05-07T11:26:50;3.50;;;2.25;;
21611;SDS011;47005;52.292;13.452;2023-05-07T11:29:16;5.43;;;3.05;;
21611;SDS011;47005;52.292;13.452;2023-05-07T11:31:43;5.75;;;2.38;;
21611;SDS011;47005;52.292;13.452;2023-05-07T11:34:14;3.92;;;2.58;;
21611;SDS011;47005;52.292;13.452;2023-05-07T11:36:45;3.67;;;2.08;;
21611;SDS011;47005;52.292;13.452;2023-05-07T11:39:28;2.63;;;1.88;;
21611;SDS011;47005;52.292;13.452;2023-05-07T11:41:56;4.75;;;2.60;;
21611;SDS011;47005;52.292;13.452;2023-05-07T11:44:22;4.57;;;2.65;;
21611;SDS011;47005;52.292;13.452;2023-05-07T11:46:48;4.65;;;2.60;;
21611;SDS011;47005;52.292;13.452;2023-05-07T11:49:14;4.65;;;2.88;;
21611;SDS011;47005;52.292;13.452;2023-05-07T11:51:40;3.75;;;2.08;;
21611;SDS011;47005;52.292;13.452;2023-05-07T11:54:08;4.93;;;2.45;;
21611;SDS011;47005;52.292;13.452;2023-05-07T11:56:36;5.18;;;1.98;;
21611;SDS011;47005;52.292;13.452;2023-05-07T11:59:03;4.60;;;2.30;;
21611;SDS011;47005;52.292;13.452;2023-05-07T12:01:28;3.45;;;2.38;;
21611;SDS011;47005;52.292;13.452;2023-05-07T12:03:54;2.92;;;2.00;;
21611;SDS011;47005;52.292;13.452;2023-05-07T12:06:20;5.32;;;2.50;;
21611;SDS011;47005;52.292;13.452;2023-05-07T12:08:46;3.38;;;2.22;;
21611;SDS011;47005;52.292;13.452;2023-05-07T12:11:29;3.63;;;1.80;;
21611;SDS011;47005;52.292;13.452;2023-05-07T12:13:55;3.08;;;2.15;;
21611;SDS011;47005;52.292;13.452;2023-05-07T12:16:21;3.42;;;2.08;;
21611;SDS011;47005;52.292;13.452;2023-05-07T12:18:47;3.35;;;1.77;;
21611;SDS011;47005;52.292;13.452;2023-05-07T12:21:13;3.15;;;1.98;;
21611;SDS011;47005;52.292;13.452;2023-05-07T12:23:39;2.75;;;1.90;;
21611;SDS011;47005;52.292;13.452;2023-05-07T12:26:05;3.40;;;1.88;;
21611;SDS011;47005;52.292;13.452;2023-05-07T12:28:31;3.50;;;1.80;;
21611;SDS011;47005;52.292;13.452;2023-05-07T12:31:02;2.80;;;1.92;;
21611;SDS011;47005;52.292;13.452;2023-05-07T12:33:28;2.40;;;1.60;;
21611;SDS011;47005;52.292;13.452;2023-05-07T12:35:55;5.88;;;2.28;;
21611;SDS011;47005;52.292;13.452;2023-05-07T12:38:21;3.30;;;1.63;;
21611;SDS011;47005;52.292;13.452;2023-05-07T12:40:48;4.00;;;2.22;;
21611;SDS011;47005;52.292;13.452;2023-05-07T12:45:45;2.92;;;1.70;;
21611;SDS011;47005;52.292;13.452;2023-05-07T12:48:13;2.95;;;2.00;;
21611;SDS011;47005;52.292;13.452;2023-05-07T12:50:39;3.05;;;1.45;;
21611;SDS011;47005;52.292;13.452;2023-05-07T12:53:05;6.53;;;1.98;;
21611;SDS011;47005;52.292;13.452;2023-05-07T12:55:34;3.88;;;2.00;;
21611;SDS011;47005;52.292;13.452;2023-05-07T12:58:14;3.70;;;1.60;;
21611;SDS011;47005;52.292;13.452;2023-05-07T13:00:43;2.28;;;1.58;;
21611;SDS011;47005;52.292;13.452;2023-05-07T13:03:10;3.53;;;1.73;;
21611;SDS011;47005;52.292;13.452;2023-05-07T13:05:41;3.00;;;1.77;;
21611;SDS011;47005;52.292;13.452;2023-05-07T13:08:07;2.95;;;1.42;;
21611;SDS011;47005;52.292;13.452;2023-05-07T13:10:34;2.25;;;1.83;;
21611;SDS011;47005;52.292;13.452;2023-05-07T13:13:00;2.38;;;1.60;;
21611;SDS011;47005;52.292;13.452;2023-05-07T13:15:25;2.15;;;1.40;;
21611;SDS011;47005;52.292;13.452;2023-05-07T13:17:52;5.63;;;1.70;;
21611;SDS011;47005;52.292;13.452;2023-05-07T13:20:17;2.58;;;1.50;;
21611;SDS011;47005;52.292;13.452;2023-05-07T13:22:46;3.47;;;1.98;;
21611;SDS011;47005;52.292;13.452;2023-05-07T13:25:12;3.83;;;1.20;;
21611;SDS011;47005;52.292;13.452;2023-05-07T13:27:37;4.68;;;1.90;;
21611;SDS011;47005;52.292;13.452;2023-05-07T13:30:04;2.30;;;1.35;;
21611;SDS011;47005;52.292;13.452;2023-05-07T13:32:30;2.75;;;1.60;;
21611;SDS011;47005;52.292;13.452;2023-05-07T13:34:56;2.65;;;1.85;;
21611;SDS011;47005;52.292;13.452;2023-05-07T13:37:22;2.60;;;1.60;;
21611;SDS011;47005;52.292;13.452;2023-05-07T13:39:48;2.05;;;1.50;;
21611;SDS011;47005;52.292;13.452;2023-05-07T13:42:13;13.30;;;3.42;;
21611;SDS011;47005;52.292;13.452;2023-05-07T13:44:39;6.90;;;1.83;;
21611;SDS011;47005;52.292;13.452;2023-05-07T13:47:05;2.45;;;1.45;;
21611;SDS011;47005;52.292;13.452;2023-05-07T13:49:31;4.90;;;1.85;;
21611;SDS011;47005;52.292;13.452;2023-05-07T13:51:56;3.50;;;1.67;;
21611;SDS011;47005;52.292;13.452;2023-05-07T13:54:22;2.22;;;1.80;;
21611;SDS011;47005;52.292;13.452;2023-05-07T13:56:47;2.30;;;1.50;;
21611;SDS011;47005;52.292;13.452;2023-05-07T13:59:13;5.38;;;1.70;;
21611;SDS011;47005;52.292;13.452;2023-05-07T14:01:39;3.80;;;2.13;;
21611;SDS011;47005;52.292;13.452;2023-05-07T14:04:05;2.80;;;1.58;;
21611;SDS011;47005;52.292;13.452;2023-05-07T14:06:31;2.28;;;1.67;;
21611;SDS011;47005;52.292;13.452;2023-05-07T14:08:56;3.80;;;1.95;;
21611;SDS011;47005;52.292;13.452;2023-05-07T14:11:23;3.35;;;1.85;;
21611;SDS011;47005;52.292;13.452;2023-05-07T14:13:48;7.15;;;2.10;;
21611;SDS011;47005;52.292;13.452;2023-05-07T14:16:14;3.40;;;1.60;;
21611;SDS011;47005;52.292;13.452;2023-05-07T14:18:40;2.55;;;1.63;;
21611;SDS011;47005;52.292;13.452;2023-05-07T14:21:05;5.57;;;1.73;;
21611;SDS011;47005;52.292;13.452;2023-05-07T14:23:32;3.08;;;1.75;;
21611;SDS011;47005;52.292;13.452;2023-05-07T14:25:57;2.85;;;1.45;;
21611;SDS011;47005;52.292;13.452;2023-05-07T14:28:23;2.05;;;1.50;;
21611;SDS011;47005;52.292;13.452;2023-05-07T14:30:49;3.90;;;1.90;;
21611;SDS011;47005;52.292;13.452;2023-05-07T14:33:14;4.28;;;1.50;;
21611;SDS011;47005;52.292;13.452;2023-05-07T14:35:43;2.17;;;1.40;;
21611;SDS011;47005;52.292;13.452;2023-05-07T14:38:13;1.95;;;1.30;;
21611;SDS011;47005;52.292;13.452;2023-05-07T14:40:42;1.98;;;1.20;;
21611;SDS011;47005;52.292;13.452;2023-05-07T14:43:07;2.92;;;1.67;;
21611;SDS011;47005;52.292;13.452;2023-05-07T14:45:33;2.53;;;1.40;;
21611;SDS011;47005;52.292;13.452;2023-05-07T14:47:59;3.58;;;1.85;;